Tiempo atmosférico en la estación meteorológica de Ciudad Real, Ciudad Real (628 m.)



Fecha
DESCASC
Temp. máxima en grados centígrados (hora)
DESCASC
Temp. mínima en grados centígrados (hora)
DESCASC
Temp. media en grados centígrados
DESCASC
Racha de viento máxima en m/sg (hora)
DESCASC
Velocidad máxima media en intervalos de 10 minutos(hora)
DESCASC
Precipitaciones diarias en mm
DESCASC
Precipitaciones de 00:00 a 06:00 en mm
DESCASC
Precipitaciones de 06:00 a 12:00 en mm
DESCASC
Precipitaciones de 12:00 a 18:00 en mm
DESCASC
Precipitaciones de 18:00 a 24:00 en mm
DESCASC
06-12-2018 17.5 (14:40) 2.4 (07:50) 10 2.78 (11:50) 1.39 (17:30) 0 0 0 0 0
05-12-2018 18.3 (16:00) 2.8 (08:40) 10.5 3.33 (22:50) 2.22 (21:20) 0 0 0 0 0
04-12-2018 15.9 (15:00) 2.1 (05:40) 9 2.5 (13:40) 1.39 (13:40) 0 0 0 0 0
03-12-2018 10.6 (16:30) 1.7 (00:00) 6.2 3.61 (06:50) 2.5 (07:20) 0 0 0 0 0
02-12-2018 15.5 (15:20) 3.6 (00:00) 9.5 5.28 (15:30) 2.5 (16:50) 0 0 0 0 0
01-12-2018 13.4 (14:00) 1.1 (00:00) 7.2 6.11 (13:50) 3.06 (16:10) 0 0 0 0 0
30-11-2018 13.1 (14:00) 4 (00:00) 8.6 5.83 (15:40) 2.78 (10:50) 1.8 1.8 0 0 0
29-11-2018 15.9 (15:50) -0.3 (00:00) 7.8 5.28 (23:20) 2.5 (23:20) 0 0 0 0 0
28-11-2018 15.2 (14:50) 0.7 (00:00) 7.9 2.5 (13:30) 1.67 (17:00) 0 0 0 0 0
27-11-2018 14.3 (14:10) 3.1 (00:00) 8.7 4.44 (14:30) 2.22 (15:30) 0 0 0 0 0
26-11-2018 12.9 (15:00) 6.5 (23:59) 9.7 14.72 (01:10) 6.94 (01:40) 1.2 1.2 0 0 0
25-11-2018 15.2 (12:20) 9.1 (00:00) 12.2 12.22 (14:00) 5.83 (14:00) 9.2 0.8 1.2 0.2 7
24-11-2018 13.7 (14:00) 0.9 (00:00) 7.3 7.5 (16:00) 3.06 (16:00) 0 0 0 0 0
23-11-2018 13.8 (14:50) 4.9 (00:00) 9.4 6.67 (16:50) 3.33 (15:20) 0.8 0.8 0 0 0
22-11-2018 13 (16:10) 7.2 (00:00) 10.1 4.72 (01:00) 2.22 (00:40) 0.6 0.2 0 0 0.4
21-11-2018 13.8 (13:30) 8.3 (00:00) 11.1 8.89 (01:10) 4.72 (01:30) 1.4 0 0 0.2 1.2
20-11-2018 11.8 (12:40) 8.9 (00:00) 10.3 12.22 (16:10) 5.28 (16:10) 3.2 0.4 1 0.8 1
19-11-2018 11.5 (13:00) 8.7 (00:00) 10.1 6.94 (01:10) 3.89 (00:50) 7 4 1.2 0 1.8
18-11-2018 13.4 (14:40) 9.1 (00:00) 11.3 6.39 (12:00) 3.33 (11:40) 6.2 0 0 1.6 4.6
17-11-2018 18.9 (14:20) 8.4 (00:00) 13.6 6.94 (19:10) 3.61 (19:10) 0 0 0 0 0
16-11-2018 18.9 (14:50) 9.3 (00:00) 14.1 6.94 (16:40) 4.17 (16:40) 0 0 0 0 0
15-11-2018 17.9 (14:10) 9.5 (00:00) 13.7 7.78 (17:30) 4.17 (13:50) 0 0 0 0 0
14-11-2018 18.1 (14:30) 9.7 (00:00) 13.9 8.89 (14:30) 5 (15:10) 0 0 0 0 0
13-11-2018 16.6 (16:10) 7.9 (00:00) 12.3 8.61 (14:40) 4.72 (14:50) 0 0 0 0 0
12-11-2018 16.8 (14:50) 7.9 (00:00) 12.3 4.44 (12:40) 2.5 (16:10) 0 0 0 0 0
11-11-2018 17.8 (15:00) 10.6 (00:00) 14.2 5.83 (03:40) 3.61 (15:20) 0.6 0 0.6 0 0
10-11-2018 13.6 (16:10) 10.4 (00:00) 12 10.83 (12:00) 5 (12:00) 0 0 0 0 0

Gráficas

Temp. máximas Temp. mínimas Temp. medias Precipitaciones Rachas de viento máximas Velocidades máximas media en intervalos de 10 minutos

Datos horarios

Fecha y hora oficial Temperatura (ºC) Velocidad del viento (km/h) Dirección del viento Racha (km/h) Dirección de racha Precipitación (mm) Presión (hPa) Tendencia (hPa) Humedad (%)
2018-12-09 23:00:00 6.7 2 Sudeste 3 Sudeste 0 957.5 0.3 91
2018-12-09 22:00:00 7.5 0 Calma 3 Norte 0 957.5 0.8 88
2018-12-09 21:00:00 8.2 0 Calma 5 Nordeste 0 957.5 1.4 86
2018-12-09 20:00:00 9.3 2 Nordeste 5 Nordeste 0 957.2 1.5 80
2018-12-09 19:00:00 10.9 0 Calma 7 Nordeste 0 956.7 1.1 74
2018-12-09 18:00:00 13.1 4 Sudeste 7 Sudeste 0 956.1 0.2 62
2018-12-09 17:00:00 15.3 3 Este 6 Nordeste 0 955.7 -0.7 55
2018-12-09 16:00:00 16.7 3 Sudeste 6 Sur 0 955.6 -1.6 47
2018-12-09 15:00:00 17.3 3 Sur 6 Sudeste 0 955.9 -1.8 49
2018-12-09 14:00:00 15.6 4 Sudeste 9 Nordeste 0 956.4 -1.8 56
2018-12-09 13:00:00 12.2 3 Sudeste 6 Sudeste 0 957.2 -0.9 73
2018-12-09 12:00:00 8.4 3 Noroeste 7 Noroeste 0 957.7 -0.1 88
2018-12-09 11:00:00 5.3 2 Norte 5 Norte 0 958.2 0.6 100
2018-12-09 10:00:00 3.2 0 Calma 3 Este 0 958.1 0.8 100
2018-12-09 09:00:00 2.4 0 Calma 7 Noroeste 0 957.8 0.7 100
2018-12-09 08:00:00 1.7 4 Noroeste 6 Noroeste 0 957.6 0.3 99
2018-12-09 07:00:00 1.9 0 Calma 6 Sudeste 0 957.3 -0.1 99
2018-12-09 06:00:00 2 4 Sudeste 5 Sudeste 0 957.1 -0.1 99
2018-12-09 05:00:00 2 0 Calma 3 Nordeste 0 957.3 0.1 98
2018-12-09 04:00:00 2.2 0 Calma 3 Este 0 957.4 0 97
2018-12-09 03:00:00 2.9 0 Calma 4 Sudeste 0 957.2 -0.1 97
2018-12-09 02:00:00 3.3 2 Sudeste 6 Sudeste 0 957.2 -0.1 96
2018-12-09 01:00:00 3.9 0 Calma 4 Noroeste 0 957.4 0.2 96
2018-12-09 00:00:00 4.5 0 Calma 3 Sudeste 0 957.3 0.3 96
2018-12-08 23:00:00 5 3 Sur 5 Sudeste 0 957.3 0.4 96
2018-12-08 22:00:00 5.8 0 Calma 5 Noroeste 0 957.2 0.7 95
2018-12-08 21:00:00 6.5 4 Noroeste 7 Noroeste 0 957 1 95
2018-12-08 20:00:00 7.2 4 Noroeste 6 Noroeste 0 956.9 1.1 91
2018-12-08 19:00:00 8.5 3 Noroeste 6 Noroeste 0 956.5 1.1 88
2018-12-08 18:00:00 10 2 Noroeste 4 Sudeste 0 956 0.1 84
2018-12-08 17:00:00 11.3 3 Sudeste 7 Este 0 955.8 -0.4 79
2018-12-08 16:00:00 12.1 7 Sudeste 10 Sur 0 955.4 -1.1 77
2018-12-08 15:00:00 12.7 2 Sudeste 9 Sur 0 955.9 -1 76
2018-12-08 14:00:00 11.3 2 Este 6 Nordeste 0 956.2 -0.9 82
2018-12-08 13:00:00 9.7 3 Este 8 Noroeste 0 956.5 -0.4 87
2018-12-08 12:00:00 7.6 0 Calma 4 Este 0 956.9 0.5 98
2018-12-08 11:00:00 5.9 2 Oeste 7 Oeste 0 957.1 1.3 100
2018-12-08 10:00:00 4.8 3 Oeste 11 Sudoeste 0 956.9 1.5 100
2018-12-08 09:00:00 4.1 4 Sudoeste 10 Sudoeste 0 956.4 1.4 100
2018-12-08 08:00:00 3.9 5 Oeste 10 Oeste 0 955.8 1 99
2018-12-08 07:00:00 3.5 4 Oeste 8 Sudoeste 0 955.4 0.3 99
2018-12-08 06:00:00 2.8 0 Calma 4 Noroeste 0 955 0 95
2018-12-08 05:00:00 3.5 0 Calma 3 Sudeste 0 954.8 -0.2 95
2018-12-08 04:00:00 4.3 0 Calma 4 Oeste 0 955.1 0 94
2018-12-08 03:00:00 5.5 0 Calma 6 Sudoeste 0 955 -0.3 93
2018-12-08 02:00:00 6.3 2 Sudoeste 7 Sudoeste 0 955 -0.5 94
2018-12-08 01:00:00 7.3 7 Sudoeste 13 Sudoeste 0 955.1 -0.2 92
2018-12-08 00:00:00 7.6 6 Sudoeste 13 Oeste 0 955.3 0.3 91
2018-12-07 23:00:00 8.3 5 Sudoeste 13 Sudoeste 0 955.5 1.1 90
2018-12-07 22:00:00 9.4 4 Sudoeste 15 Oeste 0 955.3 1.1 89
2018-12-07 21:00:00 10.6 3 Oeste 15 Sudoeste 0 955 0.9 88
2018-12-07 20:00:00 11.1 6 Sudoeste 13 Oeste 0 954.4 0.7 88
2018-12-07 19:00:00 11.9 6 Oeste 12 Sudoeste 0 954.2 0.7 84
2018-12-07 18:00:00 13.5 4 Oeste 12 Noroeste 0 954.1 0 76
2018-12-07 17:00:00 14.6 5 Noroeste 12 Oeste 0 953.7 -1 69
2018-12-07 16:00:00 15 4 Sudoeste 10 Sur 0 953.5 -1.6 64
2018-12-07 15:00:00 14.5 4 Sur 10 Sudeste 0 954.1 -2.1 71
2018-12-07 14:00:00 12.5 3 Sudeste 6 Noroeste 0 954.7 -1 77
2018-12-07 13:00:00 8.8 7 Sudeste 12 Sudeste 0 955.1 -0.4 97
2018-12-07 12:00:00 6.5 2 Oeste 8 Noroeste 0 956.2 1.1 100
2018-12-07 11:00:00 5.5 3 Este 4 Este 0 955.7 0.9 100
2018-12-07 10:00:00 4.1 2 Este 5 Este 0 955.5 1 100
2018-12-07 09:00:00 3 0 Calma 8 Sur 0 955.1 0.7 100
2018-12-07 08:00:00 3.1 2 Este 3 Este 0 954.8 0.4 99
2018-12-07 07:00:00 3.1 0 Calma 5 Sudeste 0 954.5 -0.1 99
2018-12-07 06:00:00 2.5 3 Sudeste 4 Sudeste 0 954.4 -0.2 99
2018-12-07 05:00:00 2.3 0 Calma 3 Sudeste 0 954.4 -0.4 96
2018-12-07 04:00:00 3 0 Calma 3 Sudeste 0 954.6 -0.5 96
2018-12-07 03:00:00 3.5 2 Sur 3 Sur 0 954.6 -0.5 94
2018-12-07 02:00:00 4.4 0 Calma 0 Calma 0 954.8 -0.3 94
2018-12-07 01:00:00 5.4 0 Calma 3 Sudeste 0 955.1 0.1 95
2018-12-07 00:00:00 6.1 0 Calma 4 Este 0 955.1 0.1 94
2018-12-06 23:00:00 7 2 Sudeste 3 Sudeste 0 955.1 0.3 94
2018-12-06 22:00:00 7.8 0 Calma 3 Oeste 0 955 0.5 91
2018-12-06 21:00:00 8.8 2 Oeste 3 Noroeste 0 955 0.8 90
2018-12-06 20:00:00 10 0 Calma 3 Este 0 954.8 0.5 84
2018-12-06 19:00:00 11.8 2 Nordeste 4 Nordeste 0 954.5 0.1 79
2018-12-06 18:00:00 14.4 3 Sudeste 10 Sudeste 0 954.2 -0.5 70
2018-12-06 17:00:00 16.4 5 Este 9 Nordeste 0 954.3 -0.6 59
2018-12-06 16:00:00 17.3 4 Nordeste 9 Nordeste 0 954.4 -1.2 56
2018-12-06 15:00:00 17.3 4 Nordeste 8 Nordeste 0 954.7 -1.7 57
2018-12-06 14:00:00 16.4 3 Este 6 Oeste 0 954.9 -1.5 57
2018-12-06 13:00:00 14.2 2 Sudeste 6 Norte 0 955.6 -0.4 68
2018-12-06 12:00:00 10.7 4 Nordeste 10 Nordeste 0 956.4 0.6 84
2018-12-06 11:00:00 6.9 0 Calma 5 Norte 0 956.4 0.7 100
2018-12-06 10:00:00 3.8 0 Calma 6 Nordeste 0 956 0.9 100
2018-12-06 09:00:00 2.9 0 Calma 5 Sur 0 955.8 1.1 99
2018-12-06 08:00:00 2.5 2 Sudeste 5 Norte 0 955.7 0.7 97
2018-12-06 07:00:00 2.9 0 Calma 4 Norte 0 955.1 -0.1 95
2018-12-06 06:00:00 3.8 0 Calma 4 Sur 0 954.7 -0.3 97
2018-12-06 05:00:00 4.4 3 Sur 6 Sur 0 955 0.3 97
2018-12-06 04:00:00 4.7 0 Calma 4 Norte 0 955.2 0.5 95
2018-12-06 03:00:00 5.6 3 Sudeste 7 Norte 0 955 0.4 95
2018-12-06 02:00:00 6.1 4 Sur 5 Sur 0 954.7 0.3 95
2018-12-06 01:00:00 6.7 2 Norte 9 Noroeste 0 954.7 0.2 93
2018-12-06 00:00:00 7.9 4 Norte 8 Oeste 0 954.6 0.5 94
2018-12-05 23:00:00 8.5 3 Sur 12 Sur 0 954.4 0.9 93
2018-12-05 22:00:00 9.3 0 Calma 10 Noroeste 0 954.5 1.3 87
2018-12-05 21:00:00 10.2 4 Sudoeste 7 Sudoeste 0 954.1 1 86
2018-12-05 20:00:00 11.5 4 Sudoeste 7 Sudoeste 0 953.5 0.8 84
2018-12-05 19:00:00 12.8 4 Sur 6 Sur 0 953.2 0.5 78
2018-12-05 18:00:00 14.9 2 Norte 5 Norte 0 953.1 0.4 70
2018-12-05 17:00:00 17 2 Oeste 8 Noroeste 0 952.7 -0.3 60
2018-12-05 16:00:00 18.3 4 Noroeste 7 Noroeste 0 952.7 -0.7 51
2018-12-05 15:00:00 17.5 5 Noroeste 9 Noroeste 0 952.7 -1.4 58
2018-12-05 14:00:00 16.4 5 Noroeste 8 Noroeste 0 953 -1.3 59
2018-12-05 13:00:00 13.8 3 Este 5 Norte 0 953.4 -0.6 69
2018-12-05 12:00:00 10.6 0 Calma 4 Noroeste 0 954.1 0.5 85
2018-12-05 11:00:00 7.2 2 Noroeste 5 Este 0 954.3 1.2 98
2018-12-05 10:00:00 4.6 2 Este 4 Este 0 954 1.4 100
2018-12-05 09:00:00 3.2 2 Nordeste 5 Norte 0 953.6 1.4 99
2018-12-05 08:00:00 3 3 Norte 6 Norte 0 953.1 1 98
2018-12-05 07:00:00 3.2 0 Calma 4 Noroeste 0 952.6 0.6 98
2018-12-05 06:00:00 3.5 3 Noroeste 4 Noroeste 0 952.2 0.2 97
2018-12-05 05:00:00 4 0 Calma 4 Sudeste 0 952.1 0.2 97
2018-12-05 04:00:00 4.2 0 Calma 3 Sudeste 0 952 0 95
2018-12-05 03:00:00 4.7 0 Calma 3 Este 0 952 -0.2 96
2018-12-05 02:00:00 5.2 0 Calma 3 Norte 0 951.9 -0.2 95
2018-12-05 01:00:00 5.6 2 Norte 3 Norte 0 952 0.1 94
2018-12-05 00:00:00 6.2 0 Calma 0 Calma 0 952.2 0.6 93
2018-12-04 23:00:00 6.8 0 Calma -- -- 0 952.1 0.8 92
2018-12-04 22:00:00 7.6 0 Calma 4 Noroeste 0 951.9 0.8 89
2018-12-04 21:00:00 8.5 0 Calma -- -- 0 951.6 0.8 87
2018-12-04 20:00:00 9.6 0 Calma 2 Norte 0 951.3 0.6 82
2018-12-04 19:00:00 11.1 -- -- -- -- 0 951.1 0.4 76
2018-12-04 18:00:00 13.1 2 Norte 5 Nordeste 0 950.8 0.1 67
2018-12-04 17:00:00 15.1 3 Nordeste 7 Este 0 950.7 -0.6 58
2018-12-04 16:00:00 15.7 3 Nordeste 7 Norte 0 950.7 -1.3 52
2018-12-04 15:00:00 15.8 3 Noroeste 9 Este 0 950.7 -2.2 55
2018-12-04 14:00:00 14.6 5 Este 9 Este 0 951.3 -1.8 63
2018-12-04 13:00:00 11.9 4 Este 8 Nordeste 0 952 -0.8 77
2018-12-04 12:00:00 8.5 2 Norte 8 Nordeste 0 952.9 0.7 89
2018-12-04 11:00:00 5.4 2 Este 5 Este 0 953.1 1.4 100
2018-12-04 10:00:00 3.5 4 Este 5 Este 0 952.8 1.6 100
2018-12-04 09:00:00 2.2 0 Calma 5 Norte 0 952.2 1.2 100
2018-12-04 08:00:00 2.4 3 Norte 7 Nordeste 0 951.7 0.6 100
2018-12-04 07:00:00 2.4 3 Este 6 Este 0 951.2 0 100
2018-12-04 06:00:00 2.1 0 Calma 4 Norte 0 951 -0.6 99
2018-12-04 05:00:00 2.5 2 Norte 5 Este 0 951.1 -0.7 99
2018-12-04 04:00:00 2.6 2 Este 4 Este 0 951.2 -1 99
2018-12-04 03:00:00 2.8 2 Este 4 Nordeste 0 951.6 -0.9 98
2018-12-04 02:00:00 3.4 0 Calma 4 Norte 0 951.8 -0.5 98
2018-12-04 01:00:00 3.9 0 Calma 4 Norte 0 952.2 -0.2 98
2018-12-04 00:00:00 4.1 2 Nordeste 7 Nordeste 0 952.5 0.1 98
2018-12-03 23:00:00 4.5 3 Este 5 Este 0 952.3 0.2 97
2018-12-03 22:00:00 4.9 0 Calma 5 Norte 0 952.4 0.6 96
2018-12-03 21:00:00 5.7 4 Norte 6 Norte 0 952.4 1 95
2018-12-03 20:00:00 6.6 0 Calma 6 Norte 0 952.1 0.7 93
2018-12-03 19:00:00 7.6 3 Sudeste 10 Nordeste 0 951.8 0.7 93
2018-12-03 18:00:00 9.1 6 Este 12 Este 0 951.4 0.2 89
2018-12-03 17:00:00 10.5 5 Nordeste 9 Nordeste 0 951.4 -0.1 84
2018-12-03 16:00:00 10 3 Sudeste 8 Norte 0 951.1 -0.8 85
2018-12-03 15:00:00 9.1 3 Norte 8 Noroeste 0 951.2 -1.4 87
2018-12-03 14:00:00 7.9 3 Sudeste 8 Noroeste 0 951.5 -1.4 93
2018-12-03 13:00:00 6.7 3 Este 12 Este 0 951.9 -0.7 99
2018-12-03 12:00:00 6 3 Nordeste 11 Este 0 952.6 0.3 100
2018-12-03 11:00:00 5.3 6 Este 12 Este 0 952.9 0.8 100
2018-12-03 10:00:00 4.5 6 Nordeste 13 Nordeste 0 952.6 0.8 100
2018-12-03 09:00:00 3.6 7 Este 11 Este 0 952.3 0.8 100
2018-12-03 08:00:00 2.2 4 Nordeste 13 Nordeste 0 952.1 0.7 99
2018-12-03 07:00:00 1.9 7 Nordeste 13 Nordeste 0 951.8 0.1 98
2018-12-03 06:00:00 2.4 4 Nordeste 9 Norte 0 951.5 -0.1 97
2018-12-03 05:00:00 3.2 2 Nordeste 5 Norte 0 951.4 -0.2 95
2018-12-03 04:00:00 3.9 3 Nordeste 4 Sudeste 0 951.7 -0.2 95
2018-12-03 03:00:00 4.4 0 Calma 4 Oeste 0 951.6 -0.7 94
2018-12-03 02:00:00 5 2 Oeste 6 Oeste 0 951.6 -0.7 91
2018-12-03 01:00:00 5.9 4 Oeste 8 Sudoeste 0 951.9 0 94
2018-12-03 00:00:00 6.2 3 Noroeste 8 Oeste 0 952.3 0.2 90
2018-12-02 23:00:00 7.3 3 Noroeste 7 Oeste 0 952.3 0.5 88
2018-12-02 22:00:00 8.6 4 Sur 7 Sudoeste 0 951.9 0.4 83
2018-12-02 21:00:00 10 4 Sudoeste 10 Sudoeste 0 952.1 1 75
2018-12-02 20:00:00 11.3 3 Oeste 14 Sudoeste 0 951.8 1 69
2018-12-02 19:00:00 12.1 6 Oeste 14 Oeste 0 951.5 1.1 66
2018-12-02 18:00:00 13.5 5 Oeste 15 Oeste 0 951.1 0.6 60
2018-12-02 17:00:00 14.6 8 Oeste 15 Noroeste 0 950.8 -0.2 59
2018-12-02 16:00:00 15.3 8 Sudoeste 19 Noroeste 0 950.4 -1.3 56
2018-12-02 15:00:00 15.4 8 Oeste 17 Oeste 0 950.5 -2 56
2018-12-02 14:00:00 14.7 6 Oeste 14 Oeste 0 951 -1.7 62
2018-12-02 13:00:00 13.6 4 Oeste 12 Oeste 0 951.7 -0.7 71
2018-12-02 12:00:00 11.9 6 Oeste 14 Sudoeste 0 952.5 0.5 76
2018-12-02 11:00:00 9.8 4 Sudoeste 8 Sudoeste 0 952.7 0.9 82
2018-12-02 10:00:00 6.7 2 Sudoeste 7 Oeste 0 952.4 0.9 94
2018-12-02 09:00:00 3.8 3 Sudoeste 6 Sudeste 0 952 0.7 98
2018-12-02 08:00:00 3.7 3 Sudeste 6 Sur 0 951.8 0.4 97
2018-12-02 07:00:00 3.9 3 Sur 6 Sur 0 951.5 -0.1 96
2018-12-02 06:00:00 4.1 3 Sudeste 8 Sur 0 951.3 -0.3 95
2018-12-02 05:00:00 4.3 0 Calma 6 Sudoeste 0 951.4 0.1 94
2018-12-02 04:00:00 4.8 3 Sudoeste 6 Sudoeste 0 951.6 -0.1 92
2018-12-02 03:00:00 5.6 3 Sudoeste 7 Sudoeste 0 951.6 -0.3 92
2018-12-02 02:00:00 5.6 2 Oeste 9 Oeste 0 951.3 -0.7 90
2018-12-02 01:00:00 5.9 3 Sudoeste 8 Sudoeste 0 951.7 -0.2 90
2018-12-02 00:00:00 6.6 2 Sudoeste 10 Noroeste 0 951.9 0.4 86
2018-12-01 23:00:00 7.8 5 Oeste 12 Noroeste 0 952 0.6 83
2018-12-01 22:00:00 8.3 5 Oeste 11 Oeste 0 951.9 0.9 81
2018-12-01 21:00:00 8.7 5 Oeste 14 Sudoeste 0 951.5 0.7 78
2018-12-01 20:00:00 9.3 5 Sudoeste 12 Oeste 0 951.4 1.2 73
2018-12-01 19:00:00 10.1 6 Oeste 14 Oeste 0 951 0.7 68
2018-12-01 18:00:00 11.3 6 Oeste 18 Sudoeste 0 950.8 0.4 63
2018-12-01 17:00:00 12.5 9 Sudoeste 21 Oeste 0 950.2 -0.9 59
2018-12-01 16:00:00 13.1 9 Oeste 18 Sudoeste 0 950.3 -1.2 58
2018-12-01 15:00:00 13.1 9 Oeste 18 Sudoeste 0 950.4 -1.8 56
2018-12-01 14:00:00 13.3 10 Oeste 22 Oeste 0 951.1 -1.1 53
2018-12-01 13:00:00 12.6 8 Noroeste 18 Noroeste 0 951.5 -0.7 56
2018-12-01 12:00:00 11 4 Sudoeste 11 Sudoeste 0 952.2 0.9 65
2018-12-01 11:00:00 7.2 5 Sudeste 7 Sudeste 0 952.2 1 84
2018-12-01 10:00:00 3.4 0 Calma 4 Este 0 952.2 1.4 97
2018-12-01 09:00:00 1.5 3 Sudeste 5 Sur 0 951.3 1 98
2018-12-01 08:00:00 1.1 2 Este 5 Sudoeste 0 951.2 0.2 96
2018-12-01 07:00:00 1.7 3 Sudoeste 9 Sur 0 950.8 0.1 96
2018-12-01 06:00:00 2 4 Sudeste 7 Sudeste 0 950.3 -0.2 96
2018-12-01 05:00:00 2.1 3 Sudeste 9 Oeste 0 951 -0.2 96
2018-12-01 04:00:00 2.2 0 Calma 9 Sur 0 950.7 -1.1 96
2018-12-01 03:00:00 2.1 0 Calma 5 Noroeste 0 950.5 -1.4 94
2018-12-01 02:00:00 2.7 5 Noroeste 8 Noroeste 0 951.2 -0.4 95
2018-12-01 01:00:00 3.1 2 Oeste 4 Noroeste 0 951.8 0.5 92
2018-12-01 00:00:00 4 0 Calma 10 Sur 0 951.9 1 90
2018-11-30 23:00:00 4.7 3 Sudeste 7 Sur 0 951.6 1.6 89
2018-11-30 22:00:00 5.7 4 Oeste 9 Oeste 0 951.3 1.6 85
2018-11-30 21:00:00 6.2 3 Noroeste 7 Este 0 950.9 1.7 81
2018-11-30 20:00:00 7.1 3 Nordeste 8 Nordeste 0 950 0.8 77
2018-11-30 19:00:00 8.4 5 Nordeste 10 Nordeste 0 949.7 1 73
2018-11-30 18:00:00 10.1 3 Norte 19 Nordeste 0 949.2 0.8 66
2018-11-30 17:00:00 11.8 6 Norte 16 Norte 0 949.2 0.7 55
2018-11-30 16:00:00 12.6 8 Norte 21 Noroeste 0 948.7 0.1 50
2018-11-30 15:00:00 12.4 5 Norte 15 Nordeste 0 948.4 -0.7 56
2018-11-30 14:00:00 13.1 6 Norte 15 Nordeste 0 948.5 -0.4 56
2018-11-30 13:00:00 12.1 4 Nordeste 12 Norte 0 948.6 0.3 68
2018-11-30 12:00:00 10.7 2 Norte 14 Nordeste 0 949.1 1.7 83
2018-11-30 11:00:00 10 8 Noroeste 19 Noroeste 0 948.9 2 86
2018-11-30 10:00:00 9.5 6 Noroeste 13 Noroeste 0 948.3 2.4 92
2018-11-30 09:00:00 9.4 5 Oeste 14 Noroeste 0 947.4 1.6 93
2018-11-30 08:00:00 9.4 5 Noroeste 11 Noroeste 0 946.9 1.4 96
2018-11-30 07:00:00 9.3 4 Noroeste 8 Noroeste 0 945.9 -0.2 97
2018-11-30 06:00:00 8.9 3 Oeste 9 Noroeste 0 945.8 -0.2 97
2018-11-30 05:00:00 8.8 3 Sur 8 Sudeste 0.6 945.5 -0.9 95
2018-11-30 04:00:00 8.9 2 Este 8 Noroeste 0.2 946.1 -0.6 95
2018-11-30 03:00:00 9 4 Oeste 15 Sudoeste 0.2 946 -0.8 95
2018-11-30 02:00:00 8.9 5 Sudoeste 13 Oeste 0.4 946.4 -0.4 93
2018-11-30 01:00:00 9.2 7 Oeste 17 Oeste 0.4 946.7 -1 84
2018-11-30 00:00:00 9.4 6 Sudoeste 19 Sur 0 946.8 -0.4 74
2018-11-29 23:00:00 9.9 7 Sur 15 Sudoeste 0 946.8 0.7 74
2018-11-29 22:00:00 10.1 6 Oeste 14 Sudoeste 0 947.7 1.4 66
2018-11-29 21:00:00 9.4 5 Noroeste 8 Oeste 0 947.2 1.2 70
2018-11-29 20:00:00 10.6 4 Sudeste 14 Sur 0 946.1 0.1 63
2018-11-29 19:00:00 11.4 6 Sur 13 Sur 0 946.3 -0.1 58
2018-11-29 18:00:00 13.3 0 Calma 10 Oeste 0 946 -1 49
2018-11-29 17:00:00 15.1 5 Oeste 14 Sudoeste 0 946 -1.6 42
2018-11-29 16:00:00 15.8 6 Oeste 14 Oeste 0 946.4 -1.8 39
2018-11-29 15:00:00 14.9 5 Noroeste 11 Oeste 0 947 -1.7 47
2018-11-29 14:00:00 13.2 3 Noroeste 13 Oeste 0 947.6 -1.7 52
2018-11-29 13:00:00 11.1 3 Noroeste 6 Oeste 0 948.2 -1.2 63
2018-11-29 12:00:00 8.2 2 Este 6 Norte 0 948.7 -0.7 72
2018-11-29 11:00:00 4.8 4 Este 6 Este 0 949.3 -0.1 90
2018-11-29 10:00:00 2.1 3 Este 6 Noroeste 0 949.4 0 97
2018-11-29 09:00:00 0.1 0 Calma 4 Noroeste 0 949.4 0.2 98
2018-11-29 08:00:00 -0.2 -- -- -- -- 0 949.4 0.5 97
2018-11-29 07:00:00 -0.1 0 Calma 5 Nordeste 0 949.4 0.3 97
2018-11-29 06:00:00 0.2 2 Sudeste 3 Sudeste 0 949.2 0 96
2018-11-29 05:00:00 0.6 2 Este 4 Sudeste 0 948.9 -0.4 96
2018-11-29 04:00:00 0.9 0 Calma 5 Noroeste 0 949.1 -0.9 95
2018-11-29 03:00:00 1.5 0 Calma 6 Noroeste 0 949.2 -1 95
2018-11-29 02:00:00 2.1 2 Sudeste 5 Sur 0 949.3 -1.2 94
2018-11-29 01:00:00 2.8 2 Este 4 Este 0 950 -0.3 94
2018-11-29 00:00:00 3.2 0 Calma 6 Noroeste 0 950.2 -0.1 92
2018-11-28 23:00:00 3.8 3 Norte 5 Noroeste 0 950.5 0 90
2018-11-28 22:00:00 4.7 0 Calma 3 Nordeste 0 950.3 -0.2 86
2018-11-28 21:00:00 5.7 2 Este 3 Norte 0 950.3 0 81
2018-11-28 14:00:00 14.7 4 Sudeste 9 Este 0 950.9 -1.6 55
2018-11-28 13:00:00 11.7 3 Este 5 Este 0 951.5 -0.9 67
2018-11-28 12:00:00 8.9 2 Este 5 Este 0 952.4 0.4 77
2018-11-28 11:00:00 6.1 3 Norte 5 Norte 0 952.5 0.8 90
2018-11-28 10:00:00 3 4 Este 5 Este 0 952.4 1 98
2018-11-28 09:00:00 1.3 0 Calma 4 Sur 0 952 0.7 98
2018-11-28 08:00:00 0.7 0 Calma 2 Sur 0 951.7 0.7 96
2018-11-28 07:00:00 1.3 0 Calma 3 Sudeste 0 951.4 0.5 97
2018-11-28 06:00:00 1.7 0 Calma 5 Sudeste 0 951.3 0.8 96
2018-11-28 05:00:00 2.3 2 Este 5 Noroeste 0 951 0 95
2018-11-28 04:00:00 2.9 5 Noroeste 8 Noroeste 0 950.9 -0.5 97
2018-11-28 03:00:00 2.9 4 Sudeste 6 Sudeste 0 950.5 -0.8 96
2018-11-28 02:00:00 3.2 0 Calma 3 Norte 0 951 -0.4 94
2018-11-28 01:00:00 3.8 0 Calma 3 Noroeste 0 951.4 0 92
2018-11-28 00:00:00 4.6 2 Noroeste 5 Sudeste 0 951.3 0.1 92
2018-11-27 23:00:00 5.3 2 Este 4 Oeste 0 951.4 0.4 88
2018-11-27 22:00:00 6.4 2 Sudoeste 5 Sudoeste 0 951.4 0.7 86
2018-11-27 21:00:00 7.9 0 Calma 10 Oeste 0 951.2 0.9 78
2018-11-27 20:00:00 9.2 3 Oeste 8 Sudoeste 0 951 0.7 73
2018-11-27 19:00:00 10.3 3 Oeste 8 Sudoeste 0 950.7 0.5 67
2018-11-27 18:00:00 11.3 4 Sudoeste 8 Oeste 0 950.3 -0.1 62
2018-11-27 17:00:00 12.8 4 Oeste 12 Noroeste 0 950.3 -0.5 53
2018-11-27 16:00:00 13.5 5 Oeste 15 Oeste 0 950.2 -1.1 53
2018-11-27 15:00:00 13.6 5 Noroeste 16 Oeste 0 950.4 -1.3 55
2018-11-27 14:00:00 14 5 Oeste 11 Oeste 0 950.8 -0.9 52
2018-11-27 13:00:00 12.6 3 Sur 7 Sudeste 0 951.3 0.1 57
2018-11-27 12:00:00 10.3 3 Sur 8 Sudeste 0 951.7 0.7 67
2018-11-27 11:00:00 7 0 Calma 6 Este 0 951.7 1 85
2018-11-27 10:00:00 4.9 4 Este 5 Este 0 951.2 0.6 96
2018-11-27 09:00:00 3.4 2 Este 6 Sudoeste 0 951 0.4 97
2018-11-27 08:00:00 3.1 2 Sudeste 4 Sudeste 0 950.7 0.2 95
2018-11-27 07:00:00 3.4 0 Calma 6 Noroeste 0 950.6 -0.3 93
2018-11-27 06:00:00 4.4 3 Oeste 9 Oeste 0 950.6 -0.2 93
2018-11-27 05:00:00 4.3 4 Sudoeste 9 Sudoeste 0 950.5 0.1 94
2018-11-27 04:00:00 4.6 3 Sudoeste 7 Oeste 0 950.9 0.7 91
2018-11-27 03:00:00 5.2 2 Sudoeste 10 Oeste 0 950.8 0.7 90
2018-11-27 02:00:00 5.5 4 Oeste 10 Oeste 0 950.4 0.5 90
2018-11-27 01:00:00 5.7 4 Sudoeste 9 Sudoeste 0 950.2 1.1 88
2018-11-27 00:00:00 6.5 4 Oeste 10 Oeste 0 950.1 1.4 85
2018-11-26 23:00:00 7.1 4 Noroeste 11 Oeste 0 949.9 1.8 82
2018-11-26 22:00:00 7.5 3 Oeste 10 Sudoeste 0 949.1 2 80
2018-11-26 21:00:00 8.4 4 Oeste 13 Oeste 0 948.7 2.2 76
2018-11-26 20:00:00 9.5 9 Noroeste 16 Noroeste 0 948.1 2.5 71
2018-11-26 19:00:00 10.3 6 Oeste 20 Oeste 0 947.1 2.1 69
2018-11-26 18:00:00 11.7 7 Noroeste 24 Oeste 0 946.5 1.9 62
2018-11-26 17:00:00 12.7 12 Noroeste 24 Oeste 0 945.6 1.4 58
2018-11-26 16:00:00 12.7 12 Noroeste 29 Oeste 0 945 1.1 60
2018-11-26 15:00:00 12.8 15 Noroeste 34 Oeste 0 944.6 0.1 58
2018-11-26 14:00:00 12.2 16 Noroeste 36 Oeste 0 944.2 0.4 61
2018-11-26 13:00:00 11.5 21 Noroeste 39 Noroeste 0 943.9 0.5 64
2018-11-26 12:00:00 10.5 19 Noroeste 38 Oeste 0 944.5 1.3 69
2018-11-26 11:00:00 9.2 14 Oeste 38 Oeste 0 943.8 1.7 75
2018-11-26 10:00:00 7.8 14 Oeste 31 Noroeste 0 943.4 1.7 81
2018-11-26 09:00:00 6.9 10 Oeste 29 Oeste 0 943.2 2.3 83
2018-11-26 08:00:00 6.8 10 Oeste 24 Sudoeste 0 942.1 1.8 82
2018-11-26 07:00:00 6.9 8 Oeste 32 Oeste 0 941.7 2.6 84
2018-11-26 06:00:00 7.4 16 Oeste 32 Oeste 0 940.9 3.2 82
2018-11-26 05:00:00 8.2 13 Oeste 36 Oeste 0 940.3 3.6 81
2018-11-26 04:00:00 9.1 16 Oeste 45 Oeste 0 939.1 2.8 80
2018-11-26 03:00:00 9.8 13 Oeste 52 Oeste 0 937.7 1.2 83
2018-11-26 02:00:00 11.3 20 Oeste 53 Oeste 0.2 936.7 -0.4 87
2018-11-26 01:00:00 12.4 17 Oeste 51 Sudoeste 1 936.3 -1.6 96
2018-11-26 00:00:00 11.2 12 Sudoeste 24 Sudoeste 1.6 936.5 -1.9 98
2018-11-25 23:00:00 10.9 10 Sudoeste 31 Oeste 3 937.1 -1.1 96
2018-11-25 22:00:00 11.3 11 Oeste 30 Oeste 2.4 937.9 -0.4 93
2018-11-25 21:00:00 12.6 15 Oeste 35 Sudoeste 0 938.4 0 87
2018-11-25 20:00:00 13.3 17 Sudoeste 32 Sudoeste 0 938.2 -0.1 77
2018-11-25 19:00:00 13.4 11 Sudoeste 24 Sudoeste 0 938.3 -0.4 78
2018-11-25 18:00:00 13.9 9 Oeste 26 Oeste 0 938.4 -0.5 77
2018-11-25 17:00:00 14.6 11 Oeste 26 Sudoeste 0 938.3 -1.2 75
2018-11-25 16:00:00 15 9 Oeste 37 Sudoeste 0 938.7 -1.5 76
2018-11-25 15:00:00 14.8 18 Oeste 37 Sudoeste 0 938.9 -1.9 76
2018-11-25 14:00:00 14.8 21 Sudoeste 44 Sudoeste 0.2 939.5 -1.3 77
2018-11-25 13:00:00 14.2 17 Oeste 35 Oeste 0 940.2 -0.5 79
2018-11-25 12:00:00 14.7 18 Sudoeste 37 Oeste 0 940.8 0.3 78
2018-11-25 11:00:00 12.7 16 Oeste 38 Oeste 0 940.8 0.7 89
2018-11-25 10:00:00 11.2 13 Sudoeste 32 Sudoeste 0.2 940.7 0.9 96
2018-11-25 09:00:00 10.8 9 Sudoeste 20 Sudoeste 0.2 940.5 1 96
2018-11-25 08:00:00 10.6 9 Sudoeste 30 Oeste 0.8 940.1 0.4 96
2018-11-25 07:00:00 11 15 Sudoeste 34 Sudoeste 0 939.8 -0.4 92
2018-11-25 06:00:00 10.4 9 Sur 21 Sur 0.2 939.5 -1.3 94
2018-11-25 05:00:00 10.4 9 Sudoeste 26 Sudoeste 0 939.7 -1.6 92
2018-11-25 04:00:00 10.2 13 Sudoeste 27 Sur 0.2 940.2 -1.9 92
2018-11-25 03:00:00 9.5 6 Sur 13 Sur 0.4 940.8 -2 91
2018-11-25 02:00:00 9.7 8 Sur 18 Sudoeste 0 941.3 -2.2 85
2018-11-25 01:00:00 9.5 7 Sur 17 Sur 0 942.1 -1.5 83
2018-11-25 00:00:00 9.1 6 Sur 14 Sur 0 942.8 -0.9 82
2018-11-24 23:00:00 8.7 6 Sur 15 Sur 0 943.5 -0.2 80
2018-11-24 22:00:00 8.4 9 Sur 17 Sur 0 943.6 0.1 79
2018-11-24 21:00:00 8.2 6 Sur 18 Sudoeste 0 943.7 0.5 77
2018-11-24 20:00:00 8.6 3 Sur 13 Sudoeste 0 943.7 0.5 75
2018-11-24 19:00:00 9.7 6 Sudoeste 16 Sudoeste 0 943.5 0.1 69
2018-11-24 18:00:00 10.6 6 Sudoeste 16 Sudoeste 0 943.2 -0.3 63
2018-11-24 17:00:00 11.5 6 Oeste 22 Oeste 0 943.2 -1 56
2018-11-24 16:00:00 12.5 11 Oeste 27 Oeste 0 943.4 -1.6 51
2018-11-24 15:00:00 12.6 7 Noroeste 20 Noroeste 0 943.5 -2.2 54
2018-11-24 14:00:00 13.6 11 Sudoeste 23 Oeste 0 944.2 -1.8 51
2018-11-24 13:00:00 12.6 8 Sudoeste 16 Sudoeste 0 945 -0.8 57
2018-11-24 12:00:00 10.3 5 Oeste 8 Noroeste 0 945.7 0.4 74
2018-11-24 11:00:00 7.5 3 Oeste 7 Noroeste 0 946 1.2 87
2018-11-24 10:00:00 4.5 0 Calma 10 Sur 0 945.8 1.4 99
2018-11-24 09:00:00 1.4 0 Calma 5 Noroeste 0 945.3 1 99
2018-11-24 08:00:00 0.9 0 Calma 4 Este 0 944.8 0.6 97
2018-11-24 07:00:00 1.3 0 Calma 4 Sur 0 944.4 0.1 97
2018-11-24 06:00:00 2.1 0 Calma 7 Sur 0 944.3 -0.5 98
2018-11-24 05:00:00 1.9 3 Sudeste 6 Sudeste 0 944.2 -1 96
2018-11-24 04:00:00 2.5 2 Noroeste 4 Norte 0 944.3 -0.9 96
2018-11-24 03:00:00 3 2 Sur 10 Sur 0 944.8 -0.4 96
2018-11-24 02:00:00 3.3 0 Calma 5 Oeste 0 945.2 -0.2 94
2018-11-24 01:00:00 4 0 Calma 4 Sur 0 945.2 0.1 93
2018-11-24 00:00:00 4.9 0 Calma 7 Noroeste 0 945.2 0.7 89
2018-11-23 23:00:00 6.4 4 Noroeste 10 Sur 0 945.4 1.2 86
2018-11-23 22:00:00 7.3 5 Sur 10 Sur 0 945.1 1.6 83
2018-11-23 21:00:00 7.8 4 Sudoeste 10 Sudoeste 0 944.5 1.4 80
2018-11-23 20:00:00 8.6 6 Sudoeste 11 Oeste 0 944.2 1.3 75
2018-11-23 19:00:00 9.4 3 Oeste 13 Oeste 0 943.5 1 71
2018-11-23 18:00:00 10.7 6 Noroeste 23 Noroeste 0 943.1 0.6 66
2018-11-23 17:00:00 11.9 10 Oeste 24 Sudoeste 0 942.9 0.3 59
2018-11-23 16:00:00 12.5 11 Noroeste 23 Oeste 0 942.5 -0.6 59
2018-11-23 15:00:00 13.2 11 Noroeste 24 Sudoeste 0 942.5 -1.2 56
2018-11-23 14:00:00 13.3 8 Oeste 23 Sudoeste 0 942.6 -1.2 64
2018-11-23 13:00:00 12 8 Oeste 20 Sudoeste 0 943.1 0 69
2018-11-23 12:00:00 9.9 6 Oeste 18 Noroeste 0 943.7 1 84
2018-11-23 11:00:00 9.1 8 Oeste 17 Oeste 0 943.8 1.9 86
2018-11-23 10:00:00 8.9 9 Oeste 19 Oeste 0 943.1 1.8 90
2018-11-23 09:00:00 8.6 8 Oeste 17 Oeste 0 942.7 2 91
2018-11-23 08:00:00 8.9 6 Noroeste 23 Oeste 0 941.9 1.2 92
2018-11-23 07:00:00 9 5 Oeste 15 Sudoeste 0 941.3 0.7 95
2018-11-23 06:00:00 9 7 Oeste 14 Sudoeste 0 940.7 -0.1 95
2018-11-23 05:00:00 9.1 6 Oeste 11 Oeste 0 940.7 0.1 95
2018-11-23 04:00:00 9.1 3 Oeste 9 Oeste 0.2 940.6 -0.4 95
2018-11-23 03:00:00 9.2 3 Sudoeste 8 Oeste 0.2 940.8 -0.4 95
2018-11-23 02:00:00 9.3 3 Oeste 8 Oeste 0 940.6 -1 93
2018-11-23 01:00:00 9.5 3 Oeste 8 Sudoeste 0.4 941 -0.9 93
2018-11-23 00:00:00 9.7 5 Sudoeste 9 Sudoeste 0.2 941.2 -0.9 92
2018-11-22 23:00:00 9.9 5 Sudeste 13 Sudeste 0.2 941.6 -0.5 91
2018-11-22 22:00:00 10.2 6 Sudeste 12 Sur 0 941.9 -0.1 89
2018-11-22 21:00:00 10.3 3 Este 6 Sur 0 942.1 -0.3 88
2018-11-22 20:00:00 10.8 4 Sudeste 8 Este 0 942.1 0 83
2018-11-22 19:00:00 11.3 3 Este 11 Sudeste 0 942 0.1 84
2018-11-22 18:00:00 12 3 Sudeste 9 Sudeste 0 942.4 0.1 77
2018-11-22 17:00:00 12.7 6 Sur 13 Sur 0 942.1 -0.7 70
2018-11-22 16:00:00 12.9 6 Sudeste 14 Sudeste 0 941.9 -1.5 75
2018-11-22 15:00:00 12.9 7 Este 12 Sudeste 0 942.3 -1.7 76
2018-11-22 14:00:00 12.6 6 Este 12 Este 0 942.8 -1.3 78
2018-11-22 13:00:00 12.1 2 Sudeste 7 Este 0 943.4 -0.8 80
2018-11-22 12:00:00 11.7 5 Sur 11 Este 0 944 0.1 82
2018-11-22 11:00:00 10.7 8 Sudeste 12 Sudeste 0 944.1 0.4 85
2018-11-22 10:00:00 9.1 4 Sudeste 10 Sudeste 0 944.2 0.9 92
2018-11-22 09:00:00 7.9 3 Sudeste 7 Sudeste 0 943.9 0.8 96
2018-11-22 08:00:00 7.2 4 Sudeste 6 Sudeste 0 943.7 0.6 96
2018-11-22 07:00:00 7.6 3 Sudeste 8 Sur 0 943.3 0 95
2018-11-22 06:00:00 8 6 Sudeste 9 Sudeste 0 943.1 -0.5 93
2018-11-22 05:00:00 8.4 6 Sur 10 Sur 0 943.1 -0.2 93
2018-11-22 04:00:00 8.6 5 Sur 11 Sudoeste 0 943.3 -0.4 93
2018-11-22 03:00:00 8.7 5 Sudoeste 12 Sudoeste 0 943.6 0.2 92
2018-11-22 02:00:00 8.8 3 Sudoeste 9 Sur 0 943.3 -0.1 93
2018-11-22 01:00:00 9 8 Sudoeste 17 Sudoeste 0.2 943.7 0.3 92
2018-11-22 00:00:00 9.1 5 Sudoeste 13 Sur 0 943.4 0.4 93
2018-11-21 23:00:00 9.1 7 Sudoeste 16 Sudoeste 0.2 943.4 1.1 94
2018-11-21 22:00:00 9.1 6 Sudoeste 13 Sudoeste 0.6 943.4 1.9 94
2018-11-21 21:00:00 8.8 4 Sudoeste 9 Sudoeste 0 943 2 95
2018-11-21 20:00:00 8.9 4 Sur 9 Sudeste 0 942.3 2 92
2018-11-21 19:00:00 10.1 3 Sudeste 16 Oeste 0.4 941.5 1.2 89
2018-11-21 18:00:00 11.5 9 Noroeste 16 Oeste 0.2 941 1 81
2018-11-21 17:00:00 12.4 6 Oeste 15 Oeste 0 940.3 0.2 72
2018-11-21 16:00:00 12.9 7 Noroeste 28 Sudoeste 0 940.3 -0.2 70
2018-11-21 15:00:00 13 7 Oeste 25 Sudoeste 0 940 -0.7 64
2018-11-21 14:00:00 13.1 13 Sudoeste 32 Sudoeste 0 940.1 -0.5 60
2018-11-21 13:00:00 11.9 10 Sudoeste 23 Oeste 0 940.5 0.5 71
2018-11-21 12:00:00 12.3 13 Oeste 27 Oeste 0 940.7 1.3 68
2018-11-21 11:00:00 11.1 17 Sudoeste 31 Oeste 0 940.6 2.1 77
2018-11-21 10:00:00 10.1 13 Sudoeste 25 Sudoeste 0 940 2 84
2018-11-21 09:00:00 8.7 9 Sudoeste 18 Sudoeste 0 939.4 1.5 90
2018-11-21 08:00:00 8.4 7 Sudoeste 17 Sudoeste 0 938.5 1 91
2018-11-21 07:00:00 8.6 7 Sudoeste 18 Sudoeste 0 938 0.4 90
2018-11-21 06:00:00 8.6 7 Sudoeste 19 Oeste 0 937.9 0.2 91
2018-11-21 05:00:00 8.8 8 Sudoeste 22 Oeste 0 937.5 0.3 91
2018-11-21 04:00:00 8.7 13 Sudoeste 24 Sudoeste 0 937.6 0.8 91
2018-11-21 03:00:00 8.5 10 Oeste 30 Sudoeste 0 937.7 1.2 91
2018-11-21 02:00:00 8.6 17 Sudoeste 32 Sudoeste 0 937.2 1.1 90
2018-11-21 01:00:00 9.3 16 Sudoeste 31 Sudoeste 0 936.8 1.4 89
2018-11-21 00:00:00 9.3 13 Sudoeste 27 Sudoeste 0 936.5 1.7 94
2018-11-20 23:00:00 9.1 14 Sudoeste 27 Oeste 0.2 936.1 2.2 93
2018-11-20 22:00:00 9 12 Oeste 39 Oeste 0.6 935.4 1.9 90
2018-11-20 21:00:00 9.9 15 Sudoeste 34 Sudoeste 0.2 934.8 1.9 88
2018-11-20 20:00:00 10.2 18 Sudoeste 33 Sudoeste 0 933.9 1.5 83
2018-11-20 19:00:00 10.2 15 Sudoeste 32 Sudoeste 0 933.5 1.9 78
2018-11-20 18:00:00 10.7 10 Sudoeste 33 Oeste 0 932.9 1.7 71
2018-11-20 17:00:00 11.3 16 Oeste 44 Sudoeste 0 932.4 1.5 68
2018-11-20 16:00:00 11.7 14 Oeste 40 Oeste 0 931.6 0.5 70
2018-11-20 15:00:00 11.6 16 Oeste 41 Oeste 0 931.2 -0.1 75
2018-11-20 14:00:00 11.1 12 Oeste 28 Oeste 0.2 930.9 -0.4 91
2018-11-20 13:00:00 11.2 16 Oeste 32 Noroeste 0.6 931.1 -0.1 89
2018-11-20 12:00:00 11.2 9 Sudoeste 20 Sudoeste 0 931.3 0.3 93
2018-11-20 11:00:00 10.5 6 Sudoeste 13 Sudoeste 0.4 931.3 0.5 96
2018-11-20 10:00:00 10 8 Sudoeste 17 Sudoeste 0.2 931.2 0.6 96
2018-11-20 09:00:00 9.7 6 Sudoeste 13 Sudoeste 0.4 931 0.3 96
2018-11-20 08:00:00 9.5 5 Sudoeste 13 Sur 0 930.8 0.1 96
2018-11-20 07:00:00 9.6 5 Sudoeste 17 Sudoeste 0 930.6 -0.5 97
2018-11-20 06:00:00 9.5 6 Sudoeste 16 Sudoeste 0.2 930.7 -0.6 97
2018-11-20 05:00:00 9.5 10 Sudoeste 17 Sudoeste 0 930.7 -0.7 96
2018-11-20 04:00:00 9.8 11 Sudoeste 25 Sudoeste 0.2 931.1 -0.4 94
2018-11-20 03:00:00 9.8 8 Sudoeste 18 Sudoeste 0 931.3 -0.4 96
2018-11-20 02:00:00 9.9 9 Sudoeste 18 Sudoeste 0 931.4 -0.4 96
2018-11-20 01:00:00 9.9 7 Sudoeste 17 Oeste 0 931.5 -0.2 96
2018-11-20 00:00:00 10 9 Sudoeste 17 Sudoeste 0 931.7 0.1 95
2018-11-19 23:00:00 10.4 9 Sudoeste 19 Oeste 0 931.8 0.4 96
2018-11-19 22:00:00 10.5 4 Sudoeste 13 Oeste 0.8 931.7 0.5 96
2018-11-19 21:00:00 10.7 7 Noroeste 15 Noroeste 1 931.6 0.8 95
2018-11-19 20:00:00 10.7 5 Sudoeste 13 Sudoeste 0 931.4 0.9 92
2018-11-19 19:00:00 10.9 5 Sudoeste 9 Sudoeste 0 931.2 0.8 92
2018-11-19 18:00:00 10.9 3 Sudoeste 10 Sudoeste 0 930.8 0.2 89
2018-11-19 17:00:00 11.1 2 Nordeste 8 Nordeste 0 930.5 -0.3 89
2018-11-19 16:00:00 11 2 Nordeste 6 Nordeste 0 930.4 -0.6 90
2018-11-19 15:00:00 10.8 4 Nordeste 10 Nordeste 0 930.6 -0.7 92
2018-11-19 14:00:00 11 6 Nordeste 14 Nordeste 0 930.8 -0.7 92
2018-11-19 13:00:00 11.4 6 Nordeste 11 Nordeste 0 931 -0.2 88
2018-11-19 12:00:00 10.9 3 Nordeste 9 Nordeste 0 931.3 0.6 91
2018-11-19 11:00:00 10.3 5 Este 9 Nordeste 0 931.5 1.3 95
2018-11-19 10:00:00 9.6 3 Este 8 Norte 0 931.2 1.2 99
2018-11-19 09:00:00 9 3 Norte 7 Este 0 930.7 0.7 98
2018-11-19 08:00:00 8.7 4 Nordeste 8 Nordeste 0.4 930.2 0.3 98
2018-11-19 07:00:00 9.3 4 Nordeste 9 Nordeste 0.8 930 -0.1 99
2018-11-19 06:00:00 9 4 Nordeste 12 Este 0.2 930 -0.2 98
2018-11-19 05:00:00 9.1 7 Nordeste 18 Este 0.6 929.9 -0.4 98
2018-11-19 04:00:00 9.2 9 Este 23 Este 1.2 930.1 -0.4 98
2018-11-19 03:00:00 9.3 8 Nordeste 18 Nordeste 0.8 930.2 -0.7 97
2018-11-19 02:00:00 9.6 8 Nordeste 25 Nordeste 0.6 930.3 -0.8 97
2018-11-19 01:00:00 10 13 Este 23 Este 0.6 930.5 -0.7 96
2018-11-19 00:00:00 10.3 9 Este 18 Este 2.2 930.9 -0.2 98
2018-11-18 23:00:00 10.6 10 Este 15 Este 1 931.1 0.1 97
2018-11-18 22:00:00 10.8 6 Este 13 Este 0.6 931.2 0.3 97
2018-11-18 21:00:00 10.9 6 Este 11 Este 0.2 931.1 0.3 96
2018-11-18 20:00:00 11 5 Este 9 Este 0.4 931 0.5 95
2018-11-18 19:00:00 11.2 4 Este 7 Este 0.2 930.9 -0.3 93
2018-11-18 18:00:00 11.5 2 Este 11 Nordeste 0 930.8 -0.7 91
2018-11-18 17:00:00 11.9 6 Nordeste 11 Nordeste 0 930.5 -1 91
2018-11-18 16:00:00 12.4 2 Sudoeste 11 Oeste 1.2 931.2 -1.1 88
2018-11-18 15:00:00 13.4 5 Sur 14 Nordeste 0.4 931.5 -1.1 85
2018-11-18 14:00:00 12.9 9 Nordeste 15 Este 0 931.5 -2 84
2018-11-18 13:00:00 12.3 8 Este 20 Nordeste 0 932.3 -1.3 80
2018-11-18 12:00:00 11.6 10 Nordeste 23 Nordeste 0 932.6 -1.1 88
2018-11-18 11:00:00 10.4 6 Nordeste 18 Este 0 933.5 -0.1 93
2018-11-18 10:00:00 9.7 8 Nordeste 17 Nordeste 0 933.6 -0.3 94
2018-11-18 09:00:00 9.2 10 Este 19 Nordeste 0 933.7 -0.4 96
2018-11-18 08:00:00 9.1 8 Este 16 Nordeste 0 933.6 -1.1 95
2018-11-18 07:00:00 9.3 8 Nordeste 17 Este 0 933.9 -1.4 95
2018-11-18 06:00:00 9.3 8 Nordeste 18 Nordeste 0 934.1 -1.9 95
2018-11-18 05:00:00 9.3 8 Este 17 Este 0 934.7 -2.1 94
2018-11-18 04:00:00 9.3 8 Nordeste 17 Nordeste 0 935.3 -2 94
2018-11-18 03:00:00 9.5 8 Nordeste 13 Nordeste 0 936 -1.5 93
2018-11-18 02:00:00 10 5 Este 9 Este 0 936.8 -1.4 92
2018-11-18 01:00:00 10.3 5 Nordeste 12 Nordeste 0 937.3 -1.1 92
2018-11-18 00:00:00 10.6 9 Nordeste 14 Nordeste 0 937.5 -1.2 92
2018-11-17 23:00:00 10.7 7 Nordeste 11 Este 0 938.2 -0.5 90
2018-11-17 22:00:00 11.4 6 Este 11 Nordeste 0 938.4 -0.6 89
2018-11-17 21:00:00 12.1 6 Nordeste 20 Nordeste 0 938.7 -0.4 86
2018-11-17 20:00:00 13.2 12 Nordeste 25 Nordeste 0 938.7 -0.8 81
2018-11-17 19:00:00 15.1 12 Nordeste 24 Nordeste 0 939 -0.8 75
2018-11-17 18:00:00 16.6 6 Este 14 Nordeste 0 939.1 -1.3 62
2018-11-17 17:00:00 17.6 6 Nordeste 12 Nordeste 0 939.5 -1.8 59
2018-11-17 16:00:00 17.9 5 Sudeste 14 Este 0 939.8 -2.2 56
2018-11-17 15:00:00 18.2 6 Nordeste 14 Este 0 940.4 -2.7 56
2018-11-17 14:00:00 18.2 5 Este 17 Este 0 941.3 -2.1 59
2018-11-17 13:00:00 16.9 8 Este 17 Este 0 942 -1.6 65
2018-11-17 12:00:00 14.7 6 Este 18 Nordeste 0 943.1 -0.2 77
2018-11-17 11:00:00 12.6 9 Este 18 Nordeste 0 943.4 0.3 87
2018-11-17 10:00:00 10.6 8 Nordeste 15 Este 0 943.6 0.5 97
2018-11-17 09:00:00 9 9 Este 15 Nordeste 0 943.3 0 99
2018-11-17 08:00:00 8.7 7 Nordeste 13 Este 0 943.1 -0.3 98
2018-11-17 07:00:00 8.9 6 Este 12 Nordeste 0 943.1 -0.3 98
2018-11-17 06:00:00 8.6 5 Nordeste 9 Este 0 943.3 -0.5 98
2018-11-17 05:00:00 8.4 4 Nordeste 8 Este 0 943.4 -0.6 96
2018-11-17 04:00:00 9 5 Nordeste 9 Nordeste 0 943.4 -0.8 95
2018-11-17 03:00:00 9.7 6 Nordeste 13 Nordeste 0 943.8 -0.4 95
2018-11-17 02:00:00 10.1 5 Nordeste 11 Nordeste 0 944 -0.4 93
2018-11-17 01:00:00 10.7 6 Este 13 Nordeste 0 944.2 -0.2 93
2018-11-17 00:00:00 10.9 7 Nordeste 15 Nordeste 0 944.2 0 92
2018-11-16 23:00:00 10.9 8 Nordeste 13 Nordeste 0 944.4 0.3 91
2018-11-16 22:00:00 11.4 7 Nordeste 14 Nordeste 0 944.4 0.7 89
2018-11-16 21:00:00 12.3 6 Nordeste 18 Este 0 944.2 0.6 87
2018-11-16 20:00:00 13.7 10 Este 22 Este 0 944.1 0.6 80
2018-11-16 19:00:00 14.2 6 Este 14 Nordeste 0 943.7 0.3 84
2018-11-16 18:00:00 15.5 6 Nordeste 18 Nordeste 0 943.6 -0.1 82
2018-11-16 17:00:00 16.9 9 Nordeste 25 Nordeste 0 943.5 -1.1 68
2018-11-16 16:00:00 18.4 10 Este 19 Sudeste 0 943.4 -1.8 54
2018-11-16 15:00:00 18.6 9 Este 18 Este 0 943.7 -2.2 54
2018-11-16 14:00:00 18.3 9 Este 18 Nordeste 0 944.6 -1.7 56
2018-11-16 13:00:00 17.1 9 Este 17 Este 0 945.2 -1 64
2018-11-16 12:00:00 15.1 8 Este 13 Este 0 945.9 0.1 73
2018-11-16 11:00:00 12.9 7 Este 13 Nordeste 0 946.3 1.1 84
2018-11-16 10:00:00 10.7 6 Este 12 Este 0 946.2 1 93
2018-11-16 09:00:00 9.4 5 Este 11 Nordeste 0 945.8 0.7 96
2018-11-16 08:00:00 9.5 6 Nordeste 10 Nordeste 0 945.2 -0.1 95
2018-11-16 07:00:00 10.3 5 Nordeste 13 Nordeste 0 945.2 0 94
2018-11-16 06:00:00 10.7 6 Nordeste 12 Este 0 945.1 -0.4 95
2018-11-16 05:00:00 11.1 4 Nordeste 14 Nordeste 0 945.3 -0.2 96
2018-11-16 04:00:00 11.4 7 Nordeste 14 Nordeste 0 945.2 -0.5 96
2018-11-16 03:00:00 11.5 5 Nordeste 10 Nordeste 0 945.5 0 96
2018-11-16 02:00:00 11.6 5 Nordeste 12 Nordeste 0 945.5 -0.1 95
2018-11-16 01:00:00 11.8 6 Este 16 Este 0 945.7 0.5 94
2018-11-16 00:00:00 12.2 8 Nordeste 17 Nordeste 0 945.5 0.6 92
2018-11-15 23:00:00 12.3 8 Nordeste 13 Este 0 945.6 1.1 92
2018-11-15 22:00:00 12.1 7 Nordeste 15 Nordeste 0 945.2 1.1 92
2018-11-15 21:00:00 12 9 Nordeste 16 Nordeste 0 944.9 1.3 90
2018-11-15 20:00:00 12.6 9 Este 17 Nordeste 0 944.5 1.1 86
2018-11-15 19:00:00 14 8 Nordeste 21 Este 0 944.1 0.8 79
2018-11-15 18:00:00 15.4 10 Nordeste 28 Nordeste 0 943.6 0.1 74
2018-11-15 17:00:00 16.8 12 Nordeste 24 Este 0 943.4 -0.3 64
2018-11-15 16:00:00 17.2 13 Nordeste 24 Nordeste 0 943.3 -1 63
2018-11-15 15:00:00 17.3 14 Nordeste 26 Este 0 943.5 -1.6 61
2018-11-15 14:00:00 17.8 10 Nordeste 26 Este 0 943.7 -1.3 63
2018-11-15 13:00:00 15.6 11 Este 21 Este 0 944.3 -0.4 73
2018-11-15 12:00:00 14.2 10 Este 18 Este 0 945.1 0.8 82
2018-11-15 11:00:00 13 11 Nordeste 26 Nordeste 0 945 1.1 88
2018-11-15 10:00:00 11.8 11 Nordeste 27 Nordeste 0 944.7 1.2 96
2018-11-15 09:00:00 10.6 8 Nordeste 17 Nordeste 0 944.3 0.9 97
2018-11-15 08:00:00 10.4 12 Nordeste 25 Nordeste 0 943.9 0.3 97
2018-11-15 07:00:00 9.9 10 Nordeste 20 Nordeste 0 943.5 -0.3 98
2018-11-15 06:00:00 9.7 10 Nordeste 16 Nordeste 0 943.4 -0.4 97
2018-11-15 05:00:00 9.5 7 Nordeste 15 Nordeste 0 943.6 -0.7 97
2018-11-15 04:00:00 9.7 9 Nordeste 15 Este 0 943.8 -1 97
2018-11-15 03:00:00 9.9 7 Nordeste 16 Nordeste 0 943.8 -1.1 96
2018-11-15 02:00:00 10 6 Este 14 Este 0 944.3 -1 96
2018-11-15 01:00:00 10.5 10 Nordeste 19 Este 0 944.8 -0.7 95
2018-11-15 00:00:00 10.9 9 Este 18 Nordeste 0 944.9 -0.6 95
2018-11-14 23:00:00 11.3 9 Este 18 Nordeste 0 945.3 -0.3 94
2018-11-14 22:00:00 11.8 10 Nordeste 17 Nordeste 0 945.5 -0.1 93
2018-11-14 21:00:00 12.4 10 Este 25 Nordeste 0 945.5 0 92
2018-11-14 20:00:00 12.8 9 Este 17 Este 0 945.6 -0.2 88
2018-11-14 19:00:00 14.1 9 Este 17 Este 0 945.6 -0.5 81
2018-11-14 18:00:00 14.9 10 Este 18 Este 0 945.5 -0.7 79
2018-11-14 17:00:00 15.6 9 Nordeste 18 Este 0 945.8 -0.8 80
2018-11-14 16:00:00 15.8 10 Este 31 Sudeste 0 946.1 -1.4 75
2018-11-14 15:00:00 17.7 15 Este 32 Este 0 946.2 -2.3 63
2018-11-14 14:00:00 17.4 12 Este 22 Este 0 946.6 -2.2 68
2018-11-14 13:00:00 15.7 12 Este 24 Nordeste 0 947.5 -1.6 78
2018-11-14 12:00:00 14.5 12 Este 27 Nordeste 0 948.5 -0.7 83
2018-11-14 11:00:00 12.9 13 Nordeste 26 Este 0 948.8 -0.2 90
2018-11-14 10:00:00 11.7 11 Este 24 Nordeste 0 949.1 0.2 94
2018-11-14 09:00:00 10 6 Este 18 Nordeste 0 949.2 0.1 97
2018-11-14 08:00:00 9.8 10 Este 20 Este 0 949 -0.1 96
2018-11-14 07:00:00 9.8 11 Este 18 Este 0 948.9 -0.6 96
2018-11-14 06:00:00 9.8 11 Nordeste 19 Nordeste 0 949.1 -0.8 96
2018-11-14 05:00:00 10 10 Nordeste 20 Este 0 949.1 -1 96
2018-11-14 04:00:00 10.4 12 Nordeste 23 Nordeste 0 949.5 -0.9 95
2018-11-14 03:00:00 10.4 9 Nordeste 19 Este 0 949.9 -0.7 95
2018-11-14 02:00:00 10.6 7 Nordeste 17 Este 0 950.1 -0.5 95
2018-11-14 01:00:00 10.9 8 Nordeste 18 Nordeste 0 950.4 -0.1 96
2018-11-14 00:00:00 11.1 10 Nordeste 22 Nordeste 0 950.6 0.4 95
2018-11-13 23:00:00 11.6 11 Nordeste 24 Nordeste 0 950.6 0.5 94
2018-11-13 22:00:00 12.2 14 Nordeste 27 Nordeste 0 950.5 1 92
2018-11-13 21:00:00 12.9 14 Nordeste 27 Nordeste 0 950.2 1.3 89
2018-11-13 20:00:00 13.4 13 Nordeste 23 Nordeste 0 950.1 1.2 87
2018-11-13 19:00:00 14.3 12 Nordeste 22 Nordeste 0 949.5 0.6 83
2018-11-13 18:00:00 15.3 12 Nordeste 31 Nordeste 0 948.9 0 78
2018-11-13 17:00:00 16.3 14 Nordeste 28 Nordeste 0 948.9 -0.4 74
2018-11-13 16:00:00 16.3 14 Nordeste 28 Nordeste 0 948.9 -0.9 74
2018-11-13 15:00:00 15.6 12 Nordeste 31 Nordeste 0 948.9 -1.5 77
2018-11-13 14:00:00 14.9 12 Nordeste 26 Nordeste 0 949.3 -1.2 78
2018-11-13 13:00:00 13.8 10 Nordeste 23 Nordeste 0 949.8 -0.5 84
2018-11-13 12:00:00 12.6 12 Nordeste 22 Este 0 950.4 0.5 89
2018-11-13 11:00:00 11.5 10 Este 26 Nordeste 0 950.5 1.3 95
2018-11-13 10:00:00 11.2 10 Este 19 Nordeste 0 950.3 1.4 95
2018-11-13 09:00:00 11 7 Este 13 Este 0 949.9 1.1 96
2018-11-13 08:00:00 10.8 6 Nordeste 17 Este 0 949.2 0.8 98
2018-11-13 07:00:00 10.6 9 Este 17 Este 0 948.9 0.6 99
2018-11-13 06:00:00 10.3 7 Nordeste 22 Este 0 948.8 0.6 99
2018-11-13 05:00:00 9.8 9 Este 18 Nordeste 0 948.4 0.7 98
2018-11-13 04:00:00 9 4 Este 6 Este 0 948.3 0.8 98
2018-11-13 03:00:00 8.1 3 Sudeste 5 Este 0 948.2 1.1 97
2018-11-13 02:00:00 8 4 Este 5 Sudeste 0 947.7 0.9 95
2018-11-13 01:00:00 8.5 3 Este 7 Sudeste 0 947.5 1.1 94
2018-11-13 00:00:00 9.1 3 Sudeste 4 Nordeste 0 947.1 1.3 93
2018-11-12 23:00:00 9.8 0 Calma 4 Nordeste 0 946.8 1.5 91
2018-11-12 22:00:00 10.8 2 Norte 14 Noroeste 0 946.4 1.8 89
2018-11-12 21:00:00 11.4 2 Norte 5 Noroeste 0 945.8 1.9 88
2018-11-12 20:00:00 12.4 2 Sudeste 4 Sur 0 945.3 1.8 84
2018-11-12 19:00:00 13.7 4 Sudeste 6 Sudeste 0 944.6 1.2 78
2018-11-12 18:00:00 14.9 4 Sudeste 10 Sur 0 943.9 0.3 71
2018-11-12 17:00:00 15.8 6 Este 13 Sudeste 0 943.5 -0.3 66
2018-11-12 16:00:00 16.4 5 Sudeste 13 Este 0 943.4 -0.6 62
2018-11-12 15:00:00 16.6 5 Sudeste 10 Este 0 943.6 -1 63
2018-11-12 14:00:00 15.7 3 Noroeste 15 Norte 0 943.8 -0.2 65
2018-11-12 13:00:00 15 5 Noroeste 16 Noroeste 0 944 0.5 72
2018-11-12 12:00:00 12.8 7 Noroeste 10 Oeste 0 944.6 1.8 83
2018-11-12 11:00:00 11.9 2 Nordeste 10 Nordeste 0 944 2.2 88
2018-11-12 10:00:00 10.6 5 Nordeste 10 Nordeste 0 943.5 2.4 93
2018-11-12 09:00:00 8.5 3 Noroeste 9 Nordeste 0 942.8 1.8 97
2018-11-12 08:00:00 8.1 5 Norte 10 Norte 0 941.8 0.4 94
2018-11-12 07:00:00 7.9 6 Este 14 Este 0 941.1 -0.6 95
2018-11-12 06:00:00 8.5 5 Sudeste 11 Sudeste 0 941 -0.2 96
2018-11-12 05:00:00 8.7 3 Sur 9 Sur 0 941.4 0.3 94
2018-11-12 04:00:00 9.5 4 Sudeste 15 Oeste 0 941.7 0.6 90
2018-11-12 03:00:00 10.6 9 Sudoeste 15 Oeste 0 941.2 0.4 90
2018-11-12 02:00:00 10.2 6 Sudoeste 15 Sudoeste 0 941.1 0.4 97
2018-11-12 01:00:00 10.4 0 Calma 5 Sudeste 0 941.1 0.6 94
2018-11-12 00:00:00 10.6 2 Sudoeste 6 Oeste 0 940.8 0.5 95
2018-11-11 23:00:00 10.8 0 Calma 7 Oeste 0 940.7 0.5 93
2018-11-11 22:00:00 11.1 4 Noroeste 8 Oeste 0 940.5 0.4 95
2018-11-11 21:00:00 11.4 3 Noroeste 8 Noroeste 0 940.3 0 91
2018-11-11 20:00:00 12.4 3 Sur 6 Sur 0 940.2 0 87
2018-11-11 19:00:00 14.1 4 Sur 11 Sur 0 940.1 -0.3 81
2018-11-11 18:00:00 15.9 5 Sur 17 Sur 0 940.3 -0.7 73
2018-11-11 17:00:00 16.8 10 Sur 17 Sur 0 940.2 -1.9 70
2018-11-11 16:00:00 17.1 8 Sur 20 Sur 0 940.4 -2.8 69
2018-11-11 15:00:00 17.7 6 Sudeste 19 Sudeste 0 941 -3.1 66
2018-11-11 14:00:00 17.3 9 Sur 17 Sur 0 942.1 -2.5 67
2018-11-11 13:00:00 15.9 8 Sudoeste 16 Oeste 0 943.2 -1.4 80
2018-11-11 12:00:00 14.2 5 Sur 14 Sudeste 0.4 944.1 -0.5 94
2018-11-11 11:00:00 13.8 5 Sudeste 13 Sudeste 0.2 944.6 0.5 94
2018-11-11 10:00:00 13.2 8 Sudeste 12 Sudeste 0 944.6 0.6 91
2018-11-11 09:00:00 12.9 6 Sudeste 13 Sur 0 944.6 0.7 92
2018-11-11 08:00:00 12.8 4 Sudoeste 10 Oeste 0 944.1 0.2 93
2018-11-11 07:00:00 12.7 5 Sudoeste 12 Sudoeste 0 944 -0.1 94
2018-11-11 06:00:00 12.6 5 Sur 18 Sudoeste 0 943.9 -0.3 93
2018-11-11 05:00:00 12.8 8 Sudoeste 17 Sudoeste 0 943.9 -0.5 93
2018-11-11 04:00:00 12.9 6 Sudoeste 21 Sudoeste 0 944.1 -0.7 93
2018-11-11 03:00:00 12.8 7 Sudoeste 17 Sudoeste 0 944.2 -0.8 91
2018-11-11 02:00:00 12.6 7 Sudoeste 17 Sur 0 944.4 -0.6 91
2018-11-11 01:00:00 12.7 8 Sur 18 Sudoeste 0 944.8 -0.2 89
2018-11-11 00:00:00 12.7 10 Sudoeste 22 Sudoeste 0 945 0.1 88
2018-11-10 23:00:00 12.5 7 Sudoeste 23 Sudoeste 0 945 0.3 89
2018-11-10 22:00:00 12.2 8 Sudoeste 20 Sudoeste 0 945 0.6 91
2018-11-10 21:00:00 12.5 9 Sudoeste 21 Sur 0 944.9 0.9 87
2018-11-10 20:00:00 12.3 9 Sur 26 Sudoeste 0 944.7 0.4 87
2018-11-10 19:00:00 12.9 11 Sur 24 Sur 0 944.4 0.3 82
2018-11-10 18:00:00 13.2 12 Sur 28 Sudoeste 0 944 -0.2 78
2018-11-10 17:00:00 13.4 10 Sudoeste 30 Sur 0 944.3 -0.5 76
2018-11-10 16:00:00 13.5 11 Sudoeste 28 Sudoeste 0 944.1 -1.1 75
2018-11-10 15:00:00 13.3 14 Sudoeste 31 Sudoeste 0 944.2 -1.6 77
2018-11-10 14:00:00 13.1 12 Sudoeste 36 Sudoeste 0 944.8 -1.7 78
2018-11-10 13:00:00 12.9 13 Sudoeste 36 Sudoeste 0 945.2 -1.4 77
2018-11-10 12:00:00 12.8 18 Sudoeste 39 Sudoeste 0 945.8 -0.2 77
2018-11-10 11:00:00 11.8 10 Sudoeste 26 Sur 0 946.5 0.5 81
2018-11-10 10:00:00 11.2 10 Sudoeste 24 Sudoeste 0 946.6 0.9 82
2018-11-10 09:00:00 10.7 8 Sur 21 Sur 0 946 0.3 83
2018-11-10 08:00:00 10.5 8 Sudoeste 22 Sur 0 946 -0.3 83
2018-11-10 07:00:00 10.5 8 Sudoeste 22 Sudoeste 0 945.7 -1.1 82
2018-11-10 06:00:00 10.5 13 Sudoeste 22 Oeste 0 945.7 -1.4 81
2018-11-10 05:00:00 10.5 5 Sudoeste 21 Sudoeste 0 946.3 -1.1 81
2018-11-10 04:00:00 10.6 11 Sudoeste 21 Oeste 0 946.8 -1 79
2018-11-10 03:00:00 10.5 5 Sudoeste 19 Sudoeste 0 947.1 -1.1 79
2018-11-10 02:00:00 10.5 5 Sudoeste 18 Sudoeste 0 947.4 -1.1 77
2018-11-10 01:00:00 10.5 9 Sudoeste 18 Sudoeste 0 947.8 -0.9 75
2018-11-10 00:00:00 10.4 6 Sudoeste 21 Sur 0 948.2 -0.3 75